Time;durP1;ratioP1;P1;durP2;ratioP2;P2;SDS_P1;SDS_P2;PMS_P1;PMS_P2;Temp;Humidity;BMP_temperature;BMP_pressure;BME280_temperature;BME280_humidity;BME280_pressure;Samples;Min_cycle;Max_cycle;Signal;HPM_P1;HPM_P2
2023/05/26 00:01:04;;;;;;;24.98;7.00;;;13.30;99.90;;;;;;4998599;28;20081;-69
2023/05/26 00:03:30;;;;;;;12.85;7.00;;;13.40;99.90;;;;;;4999316;28;20076;-69
2023/05/26 00:05:55;;;;;;;12.70;6.78;;;13.30;99.90;;;;;;4998461;28;20026;-69
2023/05/26 00:08:24;;;;;;;13.48;5.85;;;13.20;99.90;;;;;;4998427;28;20188;-69
2023/05/26 00:10:49;;;;;;;14.73;6.68;;;13.20;99.90;;;;;;4997741;28;20034;-69
2023/05/26 00:13:15;;;;;;;9.77;5.75;;;13.20;99.90;;;;;;4999100;28;20033;-69
2023/05/26 00:15:41;;;;;;;11.55;6.00;;;13.40;99.90;;;;;;4998524;28;20054;-69
2023/05/26 00:18:06;;;;;;;11.23;6.00;;;13.30;99.90;;;;;;4998413;28;20015;-69
2023/05/26 00:20:32;;;;;;;19.52;6.72;;;13.20;99.90;;;;;;4998254;28;20026;-69
2023/05/26 00:22:58;;;;;;;12.98;5.80;;;13.10;99.90;;;;;;5022137;22;20046;-68
2023/05/26 00:25:23;;;;;;;13.32;6.47;;;13.20;99.90;;;;;;4998211;28;20117;-68
2023/05/26 00:27:50;;;;;;;12.38;5.88;;;13.30;99.90;;;;;;4998178;28;20061;-69
2023/05/26 00:30:16;;;;;;;11.75;5.82;;;13.30;99.90;;;;;;4997967;28;20113;-69
2023/05/26 00:32:42;;;;;;;12.57;7.43;;;13.40;99.90;;;;;;4997886;28;20061;-68
2023/05/26 00:35:08;;;;;;;12.95;6.75;;;13.20;99.90;;;;;;4998349;28;20117;-68
2023/05/26 00:37:33;;;;;;;19.38;7.07;;;13.20;99.90;;;;;;4998899;28;20181;-69
2023/05/26 00:39:59;;;;;;;13.52;6.35;;;13.30;99.90;;;;;;4997787;28;20113;-69
2023/05/26 00:42:25;;;;;;;15.80;6.35;;;13.30;99.90;;;;;;4998320;28;20030;-68
2023/05/26 00:44:51;;;;;;;13.18;6.43;;;13.20;99.90;;;;;;4997694;28;20022;-69
2023/05/26 00:47:17;;;;;;;11.27;5.82;;;13.20;99.90;;;;;;4998052;28;20022;-69
2023/05/26 00:49:44;;;;;;;12.68;5.72;;;13.30;99.90;;;;;;4998433;28;20023;-68
2023/05/26 00:52:10;;;;;;;15.05;6.22;;;13.20;99.90;;;;;;4997537;28;20026;-69
2023/05/26 00:54:36;;;;;;;16.60;5.55;;;13.30;99.90;;;;;;4997485;28;20038;-69
2023/05/26 00:57:03;;;;;;;13.30;6.22;;;13.30;99.90;;;;;;4998349;28;20037;-69
2023/05/26 00:59:29;;;;;;;10.88;6.35;;;13.20;99.90;;;;;;4997503;28;20026;-69
2023/05/26 01:01:55;;;;;;;17.10;6.30;;;13.30;99.90;;;;;;4997322;28;20026;-69
2023/05/26 01:04:21;;;;;;;12.95;5.70;;;13.20;99.90;;;;;;4998562;28;20030;-69
2023/05/26 01:06:49;;;;;;;13.32;6.28;;;13.20;99.90;;;;;;4998138;28;20042;-69
2023/05/26 01:09:15;;;;;;;12.43;5.75;;;13.10;99.90;;;;;;4998385;28;20037;-69
2023/05/26 01:12:03;;;;;;;12.85;5.70;;;13.10;99.90;;;;;;4997325;28;20077;-69
2023/05/26 01:14:52;;;;;;;13.65;5.53;;;13.10;99.90;;;;;;4997109;28;20026;-69
2023/05/26 01:17:22;;;;;;;15.30;6.40;;;13.10;99.90;;;;;;4998140;28;20157;-69
2023/05/26 01:20:23;;;;;;;13.40;6.03;;;13.10;99.90;;;;;;4998593;28;20030;-69
2023/05/26 01:22:50;;;;;;;13.75;5.65;;;13.00;99.90;;;;;;4993963;28;20050;-69
2023/05/26 01:25:35;;;;;;;11.40;6.30;;;12.90;99.90;;;;;;4997141;28;20033;-69
2023/05/26 01:28:17;;;;;;;13.52;6.07;;;12.80;99.90;;;;;;4997810;28;20065;-69
2023/05/26 01:30:44;;;;;;;21.02;6.75;;;12.70;99.90;;;;;;4997760;28;20058;-69
2023/05/26 01:33:09;;;;;;;13.82;6.38;;;12.70;99.90;;;;;;4996809;28;20026;-69
2023/05/26 01:35:35;;;;;;;14.30;6.22;;;12.70;99.90;;;;;;4997015;28;20033;-68
2023/05/26 01:38:01;;;;;;;13.38;5.75;;;12.60;99.90;;;;;;4996858;28;20037;-68
2023/05/26 01:40:28;;;;;;;12.95;6.25;;;12.30;99.90;;;;;;4996838;28;20027;-69
2023/05/26 01:43:03;;;;;;;11.60;5.40;;;12.40;99.90;;;;;;4997690;28;20030;-69
2023/05/26 01:45:46;;;;;;;13.82;5.63;;;12.40;99.90;;;;;;4997435;28;20022;-68
2023/05/26 01:48:14;;;;;;;14.73;6.32;;;12.60;99.90;;;;;;4997900;28;20027;-68
2023/05/26 01:50:55;;;;;;;15.73;6.18;;;12.50;99.90;;;;;;4997497;28;20026;-69
2023/05/26 01:53:23;;;;;;;13.88;5.88;;;12.70;99.90;;;;;;4996608;28;20030;-69
2023/05/26 01:55:54;;;;;;;19.50;6.55;;;12.70;99.90;;;;;;4997708;28;20177;-68
2023/05/26 01:58:21;;;;;;;18.27;6.57;;;12.60;99.90;;;;;;4996673;28;20026;-68
2023/05/26 02:00:47;;;;;;;11.73;6.43;;;12.50;99.90;;;;;;4996627;28;20034;-68
2023/05/26 02:03:14;;;;;;;18.00;6.53;;;12.50;99.90;;;;;;4996508;28;20053;-68
2023/05/26 02:05:40;;;;;;;15.02;5.95;;;12.50;99.90;;;;;;4996655;28;20046;-68
2023/05/26 02:08:06;;;;;;;15.50;5.95;;;12.60;99.90;;;;;;4997637;28;20026;-68
2023/05/26 02:10:32;;;;;;;17.27;6.88;;;12.50;99.90;;;;;;4996393;28;20117;-69
2023/05/26 02:12:57;;;;;;;15.13;5.80;;;12.30;99.90;;;;;;4996828;28;20034;-68
2023/05/26 02:15:23;;;;;;;16.55;6.43;;;12.40;99.90;;;;;;4996864;28;20092;-69
2023/05/26 02:17:48;;;;;;;14.98;6.22;;;12.40;99.90;;;;;;4997548;28;20018;-69
2023/05/26 02:20:17;;;;;;;15.50;6.80;;;12.50;99.90;;;;;;4996617;28;20114;-69
2023/05/26 02:22:42;;;;;;;11.40;5.43;;;12.40;99.90;;;;;;4996292;28;20109;-69
2023/05/26 02:25:08;;;;;;;13.18;5.90;;;12.40;99.90;;;;;;4996583;28;20069;-69
2023/05/26 02:27:34;;;;;;;14.18;5.68;;;12.40;99.90;;;;;;4996490;28;20022;-68
2023/05/26 02:30:00;;;;;;;12.23;5.95;;;12.40;99.90;;;;;;4997248;28;20022;-68
2023/05/26 02:32:26;;;;;;;16.23;5.57;;;12.40;99.90;;;;;;4996876;28;20033;-69
2023/05/26 02:34:52;;;;;;;13.73;6.07;;;12.40;99.90;;;;;;5000373;28;20022;-68
2023/05/26 02:37:17;;;;;;;12.52;5.38;;;12.40;99.90;;;;;;5000934;28;20027;-68
2023/05/26 02:39:43;;;;;;;12.35;5.65;;;12.30;99.90;;;;;;5000424;28;20022;-68
2023/05/26 02:42:09;;;;;;;12.85;5.78;;;12.40;99.90;;;;;;5000246;28;20026;-69
2023/05/26 02:44:35;;;;;;;13.88;6.07;;;12.40;99.90;;;;;;4999950;28;20114;-69
2023/05/26 02:47:00;;;;;;;22.27;6.28;;;12.20;99.90;;;;;;5000312;28;20053;-68
2023/05/26 02:49:26;;;;;;;20.65;6.40;;;12.30;99.90;;;;;;5000711;28;20117;-68
2023/05/26 02:51:52;;;;;;;14.40;6.65;;;12.40;99.90;;;;;;5000119;28;20080;-69
2023/05/26 02:54:17;;;;;;;18.42;6.22;;;12.30;99.90;;;;;;4999691;28;20061;-68
2023/05/26 02:56:43;;;;;;;11.63;5.60;;;12.20;99.90;;;;;;4999718;28;20045;-68
2023/05/26 02:59:09;;;;;;;15.48;5.93;;;12.20;99.90;;;;;;5000816;28;20054;-68
2023/05/26 03:01:35;;;;;;;13.38;4.90;;;12.00;99.90;;;;;;5000414;28;20096;-68
2023/05/26 03:04:01;;;;;;;14.77;5.82;;;12.00;99.90;;;;;;5000451;28;20014;-68
2023/05/26 03:06:27;;;;;;;11.23;6.32;;;12.00;99.90;;;;;;5000683;28;20095;-68
2023/05/26 03:08:53;;;;;;;19.58;7.13;;;11.90;99.90;;;;;;5000542;28;20125;-68
2023/05/26 03:11:18;;;;;;;14.05;6.30;;;11.80;99.90;;;;;;4999469;28;20049;-68
2023/05/26 03:13:44;;;;;;;16.23;6.20;;;11.90;99.90;;;;;;5000432;28;20109;-68
2023/05/26 03:16:10;;;;;;;18.20;6.63;;;11.90;99.90;;;;;;4999579;28;20026;-68
2023/05/26 03:18:36;;;;;;;14.10;6.35;;;12.10;99.90;;;;;;4999340;28;20030;-68
2023/05/26 03:21:04;;;;;;;12.48;5.43;;;12.10;99.90;;;;;;5000124;28;20030;-68
2023/05/26 03:23:29;;;;;;;18.48;6.50;;;12.20;99.90;;;;;;4999369;28;20041;-68
2023/05/26 03:25:55;;;;;;;15.25;6.20;;;12.10;99.90;;;;;;4999482;28;20026;-68
2023/05/26 03:28:20;;;;;;;19.55;6.18;;;12.10;99.90;;;;;;4999166;28;20077;-68
2023/05/26 03:30:46;;;;;;;17.52;6.60;;;12.20;99.90;;;;;;4999849;28;20073;-68
2023/05/26 03:33:11;;;;;;;17.40;5.93;;;12.10;99.90;;;;;;4999285;28;20018;-68
2023/05/26 03:35:37;;;;;;;18.88;6.32;;;12.00;99.90;;;;;;4999133;28;20050;-68
2023/05/26 03:38:02;;;;;;;22.20;6.55;;;12.10;99.90;;;;;;4999293;28;20023;-68
2023/05/26 03:40:28;;;;;;;17.02;6.18;;;12.10;99.90;;;;;;4998874;28;20026;-68
2023/05/26 03:42:53;;;;;;;18.27;5.70;;;12.10;99.90;;;;;;4998792;28;20033;-68
2023/05/26 03:45:19;;;;;;;14.60;5.72;;;12.10;99.90;;;;;;4997851;28;20020;-68
2023/05/26 03:47:45;;;;;;;23.13;6.95;;;12.00;99.90;;;;;;4998855;28;20033;-68
2023/05/26 03:50:10;;;;;;;23.92;6.43;;;11.90;99.90;;;;;;4998716;28;20023;-69
2023/05/26 03:52:36;;;;;;;20.55;7.22;;;11.90;99.90;;;;;;4998738;28;20037;-68
2023/05/26 03:55:02;;;;;;;17.65;6.15;;;11.90;99.90;;;;;;4999459;28;20085;-68
2023/05/26 03:57:27;;;;;;;23.48;7.25;;;12.00;99.90;;;;;;4998862;28;20027;-68
2023/05/26 03:59:53;;;;;;;15.82;5.80;;;11.80;99.90;;;;;;4998867;28;20033;-68
2023/05/26 04:02:19;;;;;;;21.95;6.32;;;11.90;99.90;;;;;;4999215;28;20034;-68
2023/05/26 04:04:45;;;;;;;24.55;5.85;;;11.80;99.90;;;;;;4998452;28;20030;-68
2023/05/26 04:07:10;;;;;;;22.25;6.53;;;11.80;99.90;;;;;;4998445;28;20026;-68
2023/05/26 04:09:36;;;;;;;18.42;6.20;;;11.70;99.90;;;;;;4999400;28;20045;-68
2023/05/26 04:12:01;;;;;;;16.55;5.68;;;11.90;99.90;;;;;;4999703;28;20086;-68
2023/05/26 04:14:27;;;;;;;22.77;6.93;;;11.60;99.90;;;;;;4998428;28;20041;-68
2023/05/26 04:16:53;;;;;;;28.75;7.25;;;11.70;99.90;;;;;;4998524;28;20113;-68
2023/05/26 04:19:18;;;;;;;24.83;6.22;;;11.70;99.90;;;;;;4998302;28;20065;-68
2023/05/26 04:21:44;;;;;;;17.27;5.22;;;11.80;99.90;;;;;;4998540;28;20031;-68
2023/05/26 04:24:10;;;;;;;21.95;5.70;;;11.80;99.90;;;;;;4998896;28;20034;-68
2023/05/26 04:26:37;;;;;;;23.30;6.30;;;11.70;99.90;;;;;;4998430;28;20076;-68
2023/05/26 04:29:03;;;;;;;26.00;6.47;;;11.70;99.90;;;;;;4998784;28;20026;-69
2023/05/26 04:31:29;;;;;;;24.63;6.25;;;11.80;99.90;;;;;;4998113;28;20034;-68
2023/05/26 04:33:58;;;;;;;21.02;6.15;;;11.70;99.90;;;;;;4997823;28;20088;-68
2023/05/26 04:36:24;;;;;;;23.05;6.10;;;11.80;99.90;;;;;;4997956;28;20024;-68
2023/05/26 04:38:51;;;;;;;19.08;6.28;;;11.90;99.90;;;;;;4997777;28;20060;-68
2023/05/26 04:41:17;;;;;;;17.98;6.05;;;11.90;99.90;;;;;;4998513;28;20030;-68
2023/05/26 04:43:43;;;;;;;22.48;5.80;;;11.80;99.90;;;;;;4997732;28;20049;-68
2023/05/26 04:46:10;;;;;;;22.40;5.97;;;11.90;99.90;;;;;;4998650;28;20049;-68
2023/05/26 04:48:36;;;;;;;30.73;6.38;;;11.60;99.90;;;;;;4998717;28;20014;-68
2023/05/26 04:51:02;;;;;;;25.70;5.88;;;11.70;99.90;;;;;;4997908;28;20061;-68
2023/05/26 04:53:27;;;;;;;21.02;6.22;;;11.60;99.90;;;;;;4998545;28;20022;-69
2023/05/26 04:55:53;;;;;;;24.55;6.15;;;11.70;99.90;;;;;;4998263;28;20026;-68
2023/05/26 04:58:18;;;;;;;22.92;5.80;;;11.60;99.90;;;;;;4997803;28;20029;-68
2023/05/26 05:00:44;;;;;;;27.05;8.02;;;11.40;99.90;;;;;;4997655;28;20045;-68
2023/05/26 05:03:10;;;;;;;23.65;6.38;;;11.60;99.90;;;;;;4997268;28;20026;-69
2023/05/26 05:05:35;;;;;;;25.20;5.80;;;11.70;99.90;;;;;;4997639;28;20034;-68
2023/05/26 05:08:01;;;;;;;23.13;5.97;;;11.80;99.90;;;;;;4997375;28;20026;-68
2023/05/26 05:10:26;;;;;;;29.65;6.93;;;11.90;99.90;;;;;;4997573;28;20023;-68
2023/05/26 05:12:52;;;;;;;22.85;6.25;;;12.00;99.90;;;;;;4997146;28;20029;-68
2023/05/26 05:15:22;;;;;;;28.67;5.72;;;12.20;99.90;;;;;;4997275;28;20042;-68
2023/05/26 05:17:47;;;;;;;29.17;5.93;;;12.30;99.90;;;;;;4998147;28;20058;-68
2023/05/26 05:20:13;;;;;;;25.45;6.57;;;12.30;99.90;;;;;;4997188;28;20054;-68
2023/05/26 05:22:38;;;;;;;28.88;5.90;;;12.30;99.90;;;;;;4996747;28;20030;-68
2023/05/26 05:25:04;;;;;;;26.38;5.13;;;12.20;99.90;;;;;;4997091;28;20029;-69
2023/05/26 05:27:30;;;;;;;24.05;5.93;;;12.30;99.90;;;;;;4997383;28;20105;-68
2023/05/26 05:29:55;;;;;;;20.23;5.30;;;12.30;99.90;;;;;;4998247;28;20077;-68
2023/05/26 05:32:21;;;;;;;24.58;5.88;;;12.60;99.90;;;;;;4997064;28;20105;-68
2023/05/26 05:34:47;;;;;;;23.02;6.22;;;12.60;99.90;;;;;;4996802;28;20068;-68
2023/05/26 05:37:12;;;;;;;27.17;6.00;;;12.60;99.90;;;;;;4997079;28;20029;-68
2023/05/26 05:39:38;;;;;;;20.30;4.95;;;12.50;99.90;;;;;;4996982;28;20088;-69
2023/05/26 05:42:03;;;;;;;27.25;7.15;;;12.40;99.90;;;;;;4996801;28;20062;-68
2023/05/26 05:44:29;;;;;;;37.30;6.40;;;12.50;99.90;;;;;;4996777;28;20018;-68
2023/05/26 05:46:55;;;;;;;24.15;5.90;;;12.50;99.90;;;;;;4997847;28;20023;-68
2023/05/26 05:49:21;;;;;;;23.08;6.03;;;12.50;99.90;;;;;;4996728;28;20153;-68
2023/05/26 05:51:46;;;;;;;19.35;5.57;;;12.60;99.90;;;;;;4996811;28;20023;-68
2023/05/26 05:54:12;;;;;;;21.92;5.63;;;12.80;99.90;;;;;;4997563;28;20023;-69
2023/05/26 05:56:37;;;;;;;26.80;5.80;;;12.80;99.90;;;;;;4996931;28;20053;-68
2023/05/26 05:59:03;;;;;;;25.17;5.45;;;12.90;99.90;;;;;;4996738;28;20027;-68
2023/05/26 06:01:28;;;;;;;29.73;5.70;;;12.90;99.90;;;;;;4997457;28;20022;-69
2023/05/26 06:03:54;;;;;;;27.52;5.60;;;13.10;99.90;;;;;;4996664;28;20049;-69
2023/05/26 06:06:19;;;;;;;28.75;5.82;;;13.20;99.90;;;;;;4996647;28;20025;-68
2023/05/26 06:08:45;;;;;;;20.60;6.00;;;13.30;99.90;;;;;;5000123;28;20098;-68
2023/05/26 06:11:10;;;;;;;25.30;6.10;;;13.20;99.90;;;;;;5001600;28;20022;-69
2023/05/26 06:13:36;;;;;;;23.58;6.25;;;13.20;99.90;;;;;;5000599;28;20026;-68
2023/05/26 06:16:02;;;;;;;22.10;6.00;;;13.20;99.90;;;;;;5000507;28;20030;-68
2023/05/26 06:18:27;;;;;;;22.60;5.78;;;13.40;99.90;;;;;;5000937;28;20038;-68
2023/05/26 06:20:52;;;;;;;24.30;6.05;;;13.40;99.90;;;;;;5000669;28;20061;-69
2023/05/26 06:23:18;;;;;;;34.60;7.72;;;13.50;99.90;;;;;;5002104;28;20037;-69
2023/05/26 06:25:43;;;;;;;28.02;6.45;;;13.50;99.90;;;;;;5000788;28;20026;-69
2023/05/26 06:28:09;;;;;;;21.35;6.10;;;13.60;99.90;;;;;;5000424;28;20033;-69
2023/05/26 06:30:35;;;;;;;34.85;5.85;;;13.80;99.90;;;;;;5000339;28;20022;-69
2023/05/26 06:33:00;;;;;;;26.20;5.78;;;13.70;99.90;;;;;;5000200;28;20122;-69
2023/05/26 06:35:26;;;;;;;25.02;5.53;;;13.70;99.90;;;;;;5001073;28;20030;-69
2023/05/26 06:37:51;;;;;;;25.13;5.13;;;13.70;99.90;;;;;;5000075;28;20057;-69
2023/05/26 06:40:17;;;;;;;28.05;5.03;;;13.80;99.90;;;;;;5000173;28;20022;-69
2023/05/26 06:42:42;;;;;;;29.58;5.22;;;14.00;99.90;;;;;;5000591;28;20022;-69
2023/05/26 06:45:08;;;;;;;22.17;5.85;;;14.00;99.90;;;;;;4999954;28;20026;-69
2023/05/26 06:47:34;;;;;;;26.27;6.57;;;14.10;99.90;;;;;;5000817;28;20030;-69
2023/05/26 06:49:59;;;;;;;34.08;7.22;;;14.20;99.90;;;;;;5000650;28;20061;-69
2023/05/26 06:52:25;;;;;;;18.08;6.35;;;14.00;99.90;;;;;;4999899;28;20019;-69
2023/05/26 06:54:50;;;;;;;24.55;5.95;;;14.20;99.90;;;;;;4999807;28;20125;-69
2023/05/26 06:57:17;;;;;;;25.17;6.05;;;14.30;99.90;;;;;;4999760;28;20102;-69
2023/05/26 06:59:42;;;;;;;21.80;5.22;;;14.40;99.90;;;;;;5001018;28;20022;-69
2023/05/26 07:02:08;;;;;;;22.95;4.97;;;14.40;99.90;;;;;;4999480;28;20030;-69
2023/05/26 07:04:33;;;;;;;20.70;5.55;;;14.40;99.90;;;;;;5000538;28;20034;-69
2023/05/26 07:06:59;;;;;;;23.67;4.45;;;14.50;99.90;;;;;;5000453;28;20033;-70
2023/05/26 07:09:24;;;;;;;21.20;6.47;;;14.60;99.90;;;;;;4999803;28;20085;-70
2023/05/26 07:11:50;;;;;;;29.52;5.72;;;14.60;99.90;;;;;;4999807;28;20030;-70
2023/05/26 07:14:16;;;;;;;22.17;5.35;;;14.70;99.90;;;;;;4999490;28;20049;-70
2023/05/26 07:16:41;;;;;;;28.13;5.97;;;14.90;99.90;;;;;;4999951;28;20034;-69
2023/05/26 07:19:07;;;;;;;26.38;6.10;;;15.00;99.90;;;;;;4999677;28;20030;-69
2023/05/26 07:21:32;;;;;;;24.58;5.07;;;15.00;99.90;;;;;;4999632;28;20022;-69
2023/05/26 07:23:58;;;;;;;24.30;6.30;;;15.10;99.90;;;;;;4999540;28;20038;-69
2023/05/26 07:26:24;;;;;;;26.05;5.25;;;15.30;99.90;;;;;;4999241;28;20031;-69
2023/05/26 07:28:50;;;;;;;29.38;5.90;;;15.30;99.90;;;;;;4999189;28;20029;-69
2023/05/26 07:31:17;;;;;;;22.10;5.15;;;15.40;99.90;;;;;;4999421;28;20022;-68
2023/05/26 07:33:42;;;;;;;27.00;5.13;;;15.40;99.90;;;;;;4999301;28;20030;-69
2023/05/26 07:36:08;;;;;;;30.08;6.25;;;15.50;99.90;;;;;;4999144;28;20030;-68
2023/05/26 07:38:33;;;;;;;27.90;5.78;;;15.70;99.90;;;;;;5000160;28;20037;-68
2023/05/26 07:40:59;;;;;;;32.35;6.60;;;15.80;99.90;;;;;;4998874;28;20122;-68
2023/05/26 07:43:25;;;;;;;20.80;5.15;;;16.00;99.90;;;;;;4999212;28;20033;-68
2023/05/26 07:45:50;;;;;;;27.85;5.78;;;16.00;99.90;;;;;;4998867;28;20053;-68
2023/05/26 07:48:16;;;;;;;25.15;5.18;;;16.00;99.90;;;;;;4998976;28;20062;-69
2023/05/26 07:50:41;;;;;;;29.85;6.15;;;16.10;99.90;;;;;;4998849;28;20026;-69
2023/05/26 07:53:07;;;;;;;17.48;4.65;;;16.10;99.90;;;;;;4998946;28;20027;-69
2023/05/26 07:55:32;;;;;;;24.23;5.82;;;16.10;99.90;;;;;;4998753;28;20090;-69
2023/05/26 07:57:58;;;;;;;20.15;5.72;;;16.10;99.90;;;;;;4998688;28;20081;-69
2023/05/26 08:00:24;;;;;;;22.83;5.15;;;16.10;99.90;;;;;;4998677;28;20030;-69
2023/05/26 08:02:49;;;;;;;31.38;5.53;;;16.00;99.90;;;;;;4999215;28;20122;-69
2023/05/26 08:05:15;;;;;;;24.17;5.53;;;16.10;99.90;;;;;;4998639;28;20031;-69
2023/05/26 08:07:40;;;;;;;20.88;5.88;;;16.20;99.90;;;;;;4999336;28;20022;-69
2023/05/26 08:10:06;;;;;;;26.88;6.35;;;16.30;99.90;;;;;;4999273;28;20108;-69
2023/05/26 08:12:32;;;;;;;20.92;5.22;;;16.40;99.90;;;;;;4998661;28;20034;-69
2023/05/26 08:14:57;;;;;;;26.90;5.68;;;16.40;99.90;;;;;;4998283;28;20065;-69
2023/05/26 08:17:23;;;;;;;31.70;6.35;;;16.50;99.90;;;;;;4998651;28;20030;-69
2023/05/26 08:19:48;;;;;;;25.05;5.75;;;16.50;99.90;;;;;;4998282;28;20092;-69
2023/05/26 08:22:14;;;;;;;31.45;6.78;;;16.70;99.90;;;;;;4997993;28;20088;-69
2023/05/26 08:24:40;;;;;;;27.05;5.57;;;16.80;99.90;;;;;;4998125;28;20057;-69
2023/05/26 08:27:06;;;;;;;25.45;5.55;;;16.90;99.90;;;;;;4998984;28;20018;-69
2023/05/26 08:29:31;;;;;;;25.42;5.07;;;17.00;99.90;;;;;;4997929;28;20035;-69
2023/05/26 08:31:57;;;;;;;25.83;5.85;;;17.00;99.90;;;;;;4997684;28;20030;-69
2023/05/26 08:34:22;;;;;;;29.65;6.13;;;16.90;99.90;;;;;;4997796;28;20033;-69
2023/05/26 08:36:48;;;;;;;24.48;5.72;;;16.90;99.90;;;;;;4998768;28;20034;-69
2023/05/26 08:39:13;;;;;;;30.98;6.13;;;17.00;99.90;;;;;;4997973;28;20022;-69
2023/05/26 08:41:45;;;;;;;26.92;5.80;;;17.10;99.90;;;;;;4997718;28;20120;-69
2023/05/26 08:44:15;;;;;;;26.75;5.40;;;17.20;99.90;;;;;;4997720;28;20058;-69
2023/05/26 08:46:41;;;;;;;22.60;5.50;;;17.30;99.90;;;;;;4997903;28;20113;-69
2023/05/26 08:49:08;;;;;;;25.23;5.80;;;17.50;99.90;;;;;;4998485;28;20022;-69
2023/05/26 08:51:36;;;;;;;21.10;4.72;;;17.50;99.90;;;;;;4997565;28;20026;-69
2023/05/26 08:54:03;;;;;;;26.90;6.82;;;17.40;99.90;;;;;;4997942;28;20034;-69
2023/05/26 08:56:28;;;;;;;22.80;5.32;;;17.60;99.90;;;;;;4998302;28;20030;-69
2023/05/26 08:58:55;;;;;;;25.20;5.93;;;17.70;99.90;;;;;;4998092;28;20037;-69
2023/05/26 09:01:21;;;;;;;23.10;5.15;;;17.90;99.90;;;;;;4998621;28;20053;-69
2023/05/26 09:03:46;;;;;;;23.25;5.30;;;17.80;99.90;;;;;;4997332;28;20054;-69
2023/05/26 09:06:12;;;;;;;23.75;5.13;;;17.80;99.90;;;;;;4997617;28;20074;-70
2023/05/26 09:08:37;;;;;;;26.55;4.95;;;17.90;99.90;;;;;;4998362;28;20022;-70
2023/05/26 09:11:23;;;;;;;26.02;5.60;;;17.90;99.90;;;;;;4997362;28;20026;-71
2023/05/26 09:13:55;;;;;;;19.77;4.53;;;18.10;99.90;;;;;;4997930;28;20028;-71
2023/05/26 09:16:23;;;;;;;20.85;5.07;;;18.20;99.90;;;;;;4997475;28;20046;-71
2023/05/26 09:18:49;;;;;;;27.13;5.07;;;18.60;99.90;;;;;;4997855;28;20018;-70
2023/05/26 09:21:15;;;;;;;28.58;5.10;;;18.80;99.90;;;;;;4997776;28;20157;-71
2023/05/26 09:23:45;;;;;;;24.27;4.40;;;18.90;99.90;;;;;;4997211;28;20038;-71
2023/05/26 09:26:11;;;;;;;25.85;4.82;;;18.90;99.90;;;;;;4997906;28;20050;-71
2023/05/26 09:28:48;;;;;;;20.75;4.80;;;18.60;99.90;;;;;;4997334;28;20022;-71
2023/05/26 09:31:13;;;;;;;21.65;5.10;;;18.60;99.90;;;;;;4998082;28;20030;-71
2023/05/26 09:33:46;;;;;;;22.65;4.75;;;19.10;99.90;;;;;;4996925;28;20022;-71
2023/05/26 09:36:11;;;;;;;18.23;4.35;;;19.30;99.90;;;;;;4997788;28;20027;-71
2023/05/26 09:38:37;;;;;;;17.92;4.90;;;19.30;99.90;;;;;;4997655;28;20069;-71
2023/05/26 09:41:02;;;;;;;21.25;5.03;;;19.30;99.90;;;;;;4997339;28;20018;-71
2023/05/26 09:43:33;;;;;;;21.13;4.60;;;19.20;99.90;;;;;;4996845;28;20033;-71
2023/05/26 09:45:58;;;;;;;15.80;4.03;;;19.30;99.90;;;;;;4997901;28;20026;-71
2023/05/26 09:48:24;;;;;;;24.60;5.32;;;19.50;99.90;;;;;;4996823;28;20022;-71
2023/05/26 09:50:51;;;;;;;24.05;5.07;;;19.50;99.90;;;;;;4996754;28;20019;-71
2023/05/26 09:53:17;;;;;;;13.52;4.10;;;19.40;99.90;;;;;;4996703;28;20030;-71
2023/05/26 09:55:44;;;;;;;27.30;5.32;;;19.70;99.90;;;;;;4997373;28;20026;-71
2023/05/26 09:58:12;;;;;;;20.73;4.72;;;19.70;99.90;;;;;;4996880;28;20052;-71
2023/05/26 10:00:42;;;;;;;21.95;5.35;;;19.90;99.90;;;;;;4997443;28;20049;-71
2023/05/26 10:03:09;;;;;;;16.20;4.68;;;19.80;99.90;;;;;;4997616;28;20050;-71
2023/05/26 10:05:38;;;;;;;19.10;4.68;;;19.80;99.90;;;;;;4996844;28;20026;-71
2023/05/26 10:08:06;;;;;;;18.50;4.93;;;19.80;99.90;;;;;;4997172;28;20037;-71
2023/05/26 10:10:33;;;;;;;22.98;4.60;;;20.00;99.90;;;;;;4996649;28;20149;-71
2023/05/26 10:12:59;;;;;;;23.40;4.63;;;20.00;99.90;;;;;;4997238;28;20030;-71
2023/05/26 10:15:25;;;;;;;21.13;5.10;;;20.10;99.90;;;;;;4997759;28;20026;-71
2023/05/26 10:17:51;;;;;;;16.67;5.10;;;20.00;99.90;;;;;;4996510;28;20027;-71
2023/05/26 10:20:17;;;;;;;17.52;4.70;;;20.30;99.90;;;;;;4996540;28;20023;-71
2023/05/26 10:22:58;;;;;;;16.60;4.75;;;20.60;99.90;;;;;;4996406;28;20046;-70
2023/05/26 10:25:46;;;;;;;16.48;4.60;;;20.50;99.90;;;;;;4997127;28;20045;-70
2023/05/26 10:28:36;;;;;;;19.55;4.65;;;20.70;99.90;;;;;;5000938;28;20034;-71
2023/05/26 10:31:02;;;;;;;14.55;4.05;;;21.00;99.90;;;;;;4999197;28;20049;-70
2023/05/26 10:33:44;;;;;;;11.63;3.80;;;21.10;99.90;;;;;;5003745;28;20033;-71
2023/05/26 10:36:29;;;;;;;20.27;3.95;;;21.10;99.90;;;;;;5002865;28;20080;-70
2023/05/26 10:38:55;;;;;;;11.52;3.90;;;21.10;99.90;;;;;;4997260;28;20070;-69
2023/05/26 10:41:35;;;;;;;16.08;3.72;;;21.30;99.90;;;;;;4997353;28;20042;-70
2023/05/26 10:44:02;;;;;;;15.88;4.53;;;21.60;99.90;;;;;;4996261;28;20015;-69
2023/05/26 10:47:01;;;;;;;15.73;4.47;;;21.70;99.90;;;;;;4997149;28;20023;-69
2023/05/26 10:49:26;;;;;;;21.23;4.82;;;21.80;99.90;;;;;;4996285;28;20023;-70
2023/05/26 10:51:55;;;;;;;17.00;4.63;;;22.10;99.90;;;;;;4996330;28;20050;-69
2023/05/26 10:54:25;;;;;;;18.27;4.30;;;22.10;99.90;;;;;;4998039;28;20034;-70
2023/05/26 10:56:54;;;;;;;23.05;4.82;;;22.40;99.90;;;;;;4999874;28;20026;-69
2023/05/26 10:59:22;;;;;;;18.58;4.97;;;22.20;99.90;;;;;;5000084;28;20026;-69
2023/05/26 11:01:55;;;;;;;17.52;3.90;;;22.40;99.90;;;;;;4999915;28;20034;-69
2023/05/26 11:04:21;;;;;;;20.67;4.65;;;22.60;99.90;;;;;;4999714;28;20023;-69
2023/05/26 11:06:56;;;;;;;18.17;5.43;;;22.80;99.90;;;;;;5000072;28;20018;-69
2023/05/26 11:09:23;;;;;;;23.30;5.07;;;22.90;99.90;;;;;;4999778;28;20157;-69
2023/05/26 11:11:54;;;;;;;17.30;4.43;;;22.90;99.90;;;;;;4999661;28;20125;-69
2023/05/26 11:14:31;;;;;;;18.58;5.32;;;22.90;99.90;;;;;;4999477;28;20030;-70
2023/05/26 11:17:01;;;;;;;20.95;4.28;;;23.00;99.90;;;;;;4999452;28;20036;-69
2023/05/26 11:19:36;;;;;;;19.35;5.32;;;23.20;99.90;;;;;;5000575;28;20026;-72
2023/05/26 11:22:07;;;;;;;14.73;4.00;;;23.70;99.90;;;;;;5000074;28;20027;-71
2023/05/26 11:24:33;;;;;;;;;;;23.30;99.90;;;;;;5001052;28;20109;-72
2023/05/26 11:27:01;;;;;;;16.02;4.70;;;23.10;99.90;;;;;;4999380;28;19944;-72
2023/05/26 11:29:28;;;;;;;16.70;4.10;;;23.30;99.90;;;;;;5000062;28;20145;-72
2023/05/26 11:31:54;;;;;;;17.52;4.97;;;22.90;99.90;;;;;;4999119;28;20031;-72
2023/05/26 11:34:21;;;;;;;16.25;4.10;;;23.10;99.90;;;;;;4999060;28;20029;-72
2023/05/26 11:36:48;;;;;;;25.70;5.03;;;23.40;99.90;;;;;;4999903;28;20118;-72
2023/05/26 11:39:15;;;;;;;16.70;4.68;;;23.40;99.90;;;;;;4999974;28;20037;-72
2023/05/26 11:41:41;;;;;;;18.50;4.07;;;23.80;99.90;;;;;;5000223;28;20030;-72
2023/05/26 11:44:13;;;;;;;19.95;4.15;;;23.80;99.90;;;;;;4999272;28;20026;-72
2023/05/26 11:46:40;;;;;;;16.23;4.18;;;24.00;99.90;;;;;;4999371;28;20118;-72
2023/05/26 11:49:24;;;;;;;15.90;4.25;;;24.10;99.90;;;;;;4999370;28;20026;-72
2023/05/26 11:51:50;;;;;;;15.32;4.57;;;24.30;99.90;;;;;;4999679;28;20070;-72
2023/05/26 11:54:17;;;;;;;21.17;4.53;;;24.20;99.80;;;;;;4999476;28;20022;-72
2023/05/26 11:56:44;;;;;;;13.40;4.00;;;24.10;99.30;;;;;;4999457;28;20033;-72
2023/05/26 11:59:14;;;;;;;16.17;4.72;;;24.20;99.90;;;;;;4998644;28;20034;-72
2023/05/26 12:01:40;;;;;;;17.40;4.47;;;24.60;99.90;;;;;;4998953;28;20030;-72
2023/05/26 12:04:06;;;;;;;14.77;4.22;;;24.20;99.60;;;;;;4998787;28;20080;-72
2023/05/26 12:06:38;;;;;;;18.02;4.07;;;24.20;99.90;;;;;;4998722;28;20101;-72
2023/05/26 12:09:20;;;;;;;18.75;5.05;;;24.10;98.80;;;;;;4999677;28;20054;-72
2023/05/26 12:11:46;;;;;;;13.95;4.32;;;24.30;98.20;;;;;;4998498;28;20064;-72
2023/05/26 12:14:14;;;;;;;12.35;3.60;;;24.20;99.90;;;;;;4998263;28;20026;-72
2023/05/26 12:16:47;;;;;;;14.10;4.15;;;24.30;98.00;;;;;;4998543;28;20094;-72
2023/05/26 12:19:18;;;;;;;17.83;4.47;;;24.80;99.10;;;;;;4998877;28;20032;-72
2023/05/26 12:21:48;;;;;;;;;;;24.60;98.00;;;;;;4999084;28;20030;-71
2023/05/26 12:24:27;;;;;;;15.85;3.70;;;24.70;97.80;;;;;;5021695;22;19964;-69
2023/05/26 12:26:53;;;;;;;10.88;3.58;;;24.90;97.70;;;;;;4998226;28;20030;-69
2023/05/26 12:29:19;;;;;;;17.10;4.22;;;23.80;96.70;;;;;;4998118;28;20030;-69
2023/05/26 12:31:50;;;;;;;12.35;3.67;;;23.50;98.40;;;;;;4998875;28;20026;-68
2023/05/26 12:34:18;;;;;;;15.70;4.80;;;24.10;97.70;;;;;;4999191;28;20018;-68
2023/05/26 12:36:45;;;;;;;16.23;4.07;;;24.50;97.20;;;;;;4997974;28;20026;-68
2023/05/26 12:39:11;;;;;;;16.40;4.68;;;24.30;96.20;;;;;;4998893;28;20023;-68